sensor_id;sensor_type;location;lat;lon;timestamp;temperature;humidity
39219;DHT22;24934;52.752;6.964;2023-04-03T00:01:34;1.60;99.90
39219;DHT22;24934;52.752;6.964;2023-04-03T00:04:00;1.60;99.90
39219;DHT22;24934;52.752;6.964;2023-04-03T00:06:27;1.60;99.90
39219;DHT22;24934;52.752;6.964;2023-04-03T00:08:53;1.60;99.90
39219;DHT22;24934;52.752;6.964;2023-04-03T00:11:18;1.50;99.90
39219;DHT22;24934;52.752;6.964;2023-04-03T00:13:45;1.50;99.90
39219;DHT22;24934;52.752;6.964;2023-04-03T00:16:11;1.50;99.90
39219;DHT22;24934;52.752;6.964;2023-04-03T00:18:38;1.50;99.90
39219;DHT22;24934;52.752;6.964;2023-04-03T00:21:04;1.50;99.90
39219;DHT22;24934;52.752;6.964;2023-04-03T00:23:31;1.50;99.90
39219;DHT22;24934;52.752;6.964;2023-04-03T00:25:56;1.40;99.90
39219;DHT22;24934;52.752;6.964;2023-04-03T00:28:22;1.40;99.90
39219;DHT22;24934;52.752;6.964;2023-04-03T00:30:51;1.30;99.90
39219;DHT22;24934;52.752;6.964;2023-04-03T00:33:17;1.30;99.90
39219;DHT22;24934;52.752;6.964;2023-04-03T00:35:42;1.30;99.90
39219;DHT22;24934;52.752;6.964;2023-04-03T00:38:11;1.20;99.90
39219;DHT22;24934;52.752;6.964;2023-04-03T00:40:39;1.20;99.90
39219;DHT22;24934;52.752;6.964;2023-04-03T00:43:33;1.20;99.90
39219;DHT22;24934;52.752;6.964;2023-04-03T00:46:00;1.10;99.90
39219;DHT22;24934;52.752;6.964;2023-04-03T00:50:59;1.00;99.90
39219;DHT22;24934;52.752;6.964;2023-04-03T00:53:32;1.00;99.90
39219;DHT22;24934;52.752;6.964;2023-04-03T00:55:59;1.00;99.90
39219;DHT22;24934;52.752;6.964;2023-04-03T00:58:33;0.90;99.90
39219;DHT22;24934;52.752;6.964;2023-04-03T01:01:00;0.90;99.90
39219;DHT22;24934;52.752;6.964;2023-04-03T01:03:28;0.90;99.90
39219;DHT22;24934;52.752;6.964;2023-04-03T01:05:56;0.80;99.90
39219;DHT22;24934;52.752;6.964;2023-04-03T01:08:23;0.80;99.90
39219;DHT22;24934;52.752;6.964;2023-04-03T01:10:49;0.70;99.90
39219;DHT22;24934;52.752;6.964;2023-04-03T01:13:25;0.70;99.90
39219;DHT22;24934;52.752;6.964;2023-04-03T01:15:50;0.60;99.90
39219;DHT22;24934;52.752;6.964;2023-04-03T01:18:16;0.60;99.90
39219;DHT22;24934;52.752;6.964;2023-04-03T01:25:54;0.40;99.90
39219;DHT22;24934;52.752;6.964;2023-04-03T01:28:25;0.50;99.90
39219;DHT22;24934;52.752;6.964;2023-04-03T01:33:25;0.40;99.90
39219;DHT22;24934;52.752;6.964;2023-04-03T01:35:51;0.40;99.90
39219;DHT22;24934;52.752;6.964;2023-04-03T01:38:17;0.30;99.90
39219;DHT22;24934;52.752;6.964;2023-04-03T01:40:42;0.20;99.90
39219;DHT22;24934;52.752;6.964;2023-04-03T01:43:08;0.20;99.90
39219;DHT22;24934;52.752;6.964;2023-04-03T01:45:34;0.20;99.90
39219;DHT22;24934;52.752;6.964;2023-04-03T01:47:59;0.10;99.90
39219;DHT22;24934;52.752;6.964;2023-04-03T01:50:25;0.00;99.90
39219;DHT22;24934;52.752;6.964;2023-04-03T01:52:51;0.00;99.90
39219;DHT22;24934;52.752;6.964;2023-04-03T01:55:16;-0.10;99.90
39219;DHT22;24934;52.752;6.964;2023-04-03T01:57:42;-0.20;99.90
39219;DHT22;24934;52.752;6.964;2023-04-03T02:00:08;-0.20;99.90
39219;DHT22;24934;52.752;6.964;2023-04-03T02:02:34;-0.30;99.90
39219;DHT22;24934;52.752;6.964;2023-04-03T02:05:00;-0.30;99.90
39219;DHT22;24934;52.752;6.964;2023-04-03T02:07:26;-0.30;99.90
39219;DHT22;24934;52.752;6.964;2023-04-03T02:09:52;-0.30;99.90
39219;DHT22;24934;52.752;6.964;2023-04-03T02:12:18;-0.40;99.90
39219;DHT22;24934;52.752;6.964;2023-04-03T02:14:43;-0.40;99.90
39219;DHT22;24934;52.752;6.964;2023-04-03T02:17:09;-0.40;99.90
39219;DHT22;24934;52.752;6.964;2023-04-03T02:19:35;-0.40;99.90
39219;DHT22;24934;52.752;6.964;2023-04-03T02:22:04;-0.50;99.90
39219;DHT22;24934;52.752;6.964;2023-04-03T02:24:30;-0.50;99.90
39219;DHT22;24934;52.752;6.964;2023-04-03T02:26:56;-0.50;99.90
39219;DHT22;24934;52.752;6.964;2023-04-03T02:29:22;-0.60;99.90
39219;DHT22;24934;52.752;6.964;2023-04-03T02:31:48;-0.60;99.90
39219;DHT22;24934;52.752;6.964;2023-04-03T02:34:14;-0.60;99.90
39219;DHT22;24934;52.752;6.964;2023-04-03T02:36:40;-0.70;99.90
39219;DHT22;24934;52.752;6.964;2023-04-03T02:39:05;-0.80;99.90
39219;DHT22;24934;52.752;6.964;2023-04-03T02:41:31;-0.80;99.90
39219;DHT22;24934;52.752;6.964;2023-04-03T02:44:04;-0.90;99.90
39219;DHT22;24934;52.752;6.964;2023-04-03T02:46:30;-0.90;99.90
39219;DHT22;24934;52.752;6.964;2023-04-03T02:48:56;-0.90;99.90
39219;DHT22;24934;52.752;6.964;2023-04-03T02:51:25;-1.00;99.90
39219;DHT22;24934;52.752;6.964;2023-04-03T02:53:51;-1.00;99.90
39219;DHT22;24934;52.752;6.964;2023-04-03T02:56:17;-1.10;99.90
39219;DHT22;24934;52.752;6.964;2023-04-03T02:58:44;-1.00;99.90
39219;DHT22;24934;52.752;6.964;2023-04-03T03:01:11;-1.00;99.90
39219;DHT22;24934;52.752;6.964;2023-04-03T03:03:37;-1.10;99.90
39219;DHT22;24934;52.752;6.964;2023-04-03T03:06:05;-1.10;99.90
39219;DHT22;24934;52.752;6.964;2023-04-03T03:08:31;-1.10;99.90
39219;DHT22;24934;52.752;6.964;2023-04-03T03:10:57;-1.10;99.90
39219;DHT22;24934;52.752;6.964;2023-04-03T03:13:22;-1.20;99.90
39219;DHT22;24934;52.752;6.964;2023-04-03T03:15:48;-1.30;99.90
39219;DHT22;24934;52.752;6.964;2023-04-03T03:18:13;-1.40;99.90
39219;DHT22;24934;52.752;6.964;2023-04-03T03:20:39;-1.40;99.90
39219;DHT22;24934;52.752;6.964;2023-04-03T03:23:05;-1.40;99.90
39219;DHT22;24934;52.752;6.964;2023-04-03T03:25:31;-1.40;99.90
39219;DHT22;24934;52.752;6.964;2023-04-03T03:27:56;-1.40;99.90
39219;DHT22;24934;52.752;6.964;2023-04-03T03:30:23;-1.40;99.90
39219;DHT22;24934;52.752;6.964;2023-04-03T03:32:49;-1.40;99.90
39219;DHT22;24934;52.752;6.964;2023-04-03T03:35:15;-1.40;99.90
39219;DHT22;24934;52.752;6.964;2023-04-03T03:37:40;-1.40;99.90
39219;DHT22;24934;52.752;6.964;2023-04-03T03:40:06;-1.40;99.90
39219;DHT22;24934;52.752;6.964;2023-04-03T03:42:32;-1.40;99.90
39219;DHT22;24934;52.752;6.964;2023-04-03T03:44:58;-1.40;99.90
39219;DHT22;24934;52.752;6.964;2023-04-03T03:47:24;-1.50;99.90
39219;DHT22;24934;52.752;6.964;2023-04-03T03:49:49;-1.40;99.90
39219;DHT22;24934;52.752;6.964;2023-04-03T03:52:17;-1.40;99.90
39219;DHT22;24934;52.752;6.964;2023-04-03T03:54:43;-1.40;99.90
39219;DHT22;24934;52.752;6.964;2023-04-03T03:57:08;-1.40;99.90
39219;DHT22;24934;52.752;6.964;2023-04-03T03:59:34;-1.50;99.90
39219;DHT22;24934;52.752;6.964;2023-04-03T04:02:00;-1.50;99.90
39219;DHT22;24934;52.752;6.964;2023-04-03T04:04:26;-1.50;99.90
39219;DHT22;24934;52.752;6.964;2023-04-03T04:06:52;-1.50;99.90
39219;DHT22;24934;52.752;6.964;2023-04-03T04:09:17;-1.40;99.90
39219;DHT22;24934;52.752;6.964;2023-04-03T04:11:43;-1.40;99.90
39219;DHT22;24934;52.752;6.964;2023-04-03T04:14:10;-1.50;99.90
39219;DHT22;24934;52.752;6.964;2023-04-03T04:16:37;-1.50;99.90
39219;DHT22;24934;52.752;6.964;2023-04-03T04:19:03;-1.50;99.90
39219;DHT22;24934;52.752;6.964;2023-04-03T04:21:29;-1.60;99.90
39219;DHT22;24934;52.752;6.964;2023-04-03T04:23:54;-1.60;99.90
39219;DHT22;24934;52.752;6.964;2023-04-03T04:26:20;-1.70;99.90
39219;DHT22;24934;52.752;6.964;2023-04-03T04:28:46;-1.70;99.90
39219;DHT22;24934;52.752;6.964;2023-04-03T04:31:12;-1.70;99.90
39219;DHT22;24934;52.752;6.964;2023-04-03T04:33:38;-1.80;99.90
39219;DHT22;24934;52.752;6.964;2023-04-03T04:36:03;-1.80;99.90
39219;DHT22;24934;52.752;6.964;2023-04-03T04:38:29;-1.80;99.90
39219;DHT22;24934;52.752;6.964;2023-04-03T04:40:55;-1.70;99.90
39219;DHT22;24934;52.752;6.964;2023-04-03T04:43:20;-1.80;99.90
39219;DHT22;24934;52.752;6.964;2023-04-03T04:45:46;-1.70;99.90
39219;DHT22;24934;52.752;6.964;2023-04-03T04:48:12;-1.70;99.90
39219;DHT22;24934;52.752;6.964;2023-04-03T04:50:38;-1.60;99.90
39219;DHT22;24934;52.752;6.964;2023-04-03T04:53:03;-1.60;99.90
39219;DHT22;24934;52.752;6.964;2023-04-03T04:55:29;-1.50;99.90
39219;DHT22;24934;52.752;6.964;2023-04-03T04:57:55;-1.50;99.90
39219;DHT22;24934;52.752;6.964;2023-04-03T05:00:21;-1.50;99.90
39219;DHT22;24934;52.752;6.964;2023-04-03T05:02:46;-1.50;99.90
39219;DHT22;24934;52.752;6.964;2023-04-03T05:05:12;-1.50;99.90
39219;DHT22;24934;52.752;6.964;2023-04-03T05:07:38;-1.50;99.90
39219;DHT22;24934;52.752;6.964;2023-04-03T05:10:06;-1.60;99.90
39219;DHT22;24934;52.752;6.964;2023-04-03T05:12:32;-1.50;99.90
39219;DHT22;24934;52.752;6.964;2023-04-03T05:14:58;-1.50;99.90
39219;DHT22;24934;52.752;6.964;2023-04-03T05:17:23;-1.50;99.90
39219;DHT22;24934;52.752;6.964;2023-04-03T05:19:49;-1.40;99.90
39219;DHT22;24934;52.752;6.964;2023-04-03T05:22:14;-1.40;99.90
39219;DHT22;24934;52.752;6.964;2023-04-03T05:24:40;-1.40;99.90
39219;DHT22;24934;52.752;6.964;2023-04-03T05:27:06;-1.40;99.90
39219;DHT22;24934;52.752;6.964;2023-04-03T05:29:31;-1.40;99.90
39219;DHT22;24934;52.752;6.964;2023-04-03T05:31:57;-1.40;99.90
39219;DHT22;24934;52.752;6.964;2023-04-03T05:34:22;-1.40;99.90
39219;DHT22;24934;52.752;6.964;2023-04-03T05:36:48;-1.30;99.90
39219;DHT22;24934;52.752;6.964;2023-04-03T05:39:14;-1.30;99.90
39219;DHT22;24934;52.752;6.964;2023-04-03T05:41:39;-1.30;99.90
39219;DHT22;24934;52.752;6.964;2023-04-03T05:44:05;-1.30;99.90
39219;DHT22;24934;52.752;6.964;2023-04-03T05:46:31;-1.20;99.90
39219;DHT22;24934;52.752;6.964;2023-04-03T05:48:56;-1.20;99.90
39219;DHT22;24934;52.752;6.964;2023-04-03T05:51:24;-1.10;99.90
39219;DHT22;24934;52.752;6.964;2023-04-03T05:53:56;-1.10;99.90
39219;DHT22;24934;52.752;6.964;2023-04-03T05:56:24;-0.70;99.90
39219;DHT22;24934;52.752;6.964;2023-04-03T05:58:50;0.40;99.90
39219;DHT22;24934;52.752;6.964;2023-04-03T06:01:16;1.70;99.90
39219;DHT22;24934;52.752;6.964;2023-04-03T06:03:42;2.60;99.90
39219;DHT22;24934;52.752;6.964;2023-04-03T06:06:10;3.20;99.90
39219;DHT22;24934;52.752;6.964;2023-04-03T06:08:37;4.00;99.90
39219;DHT22;24934;52.752;6.964;2023-04-03T06:11:03;4.80;99.90
39219;DHT22;24934;52.752;6.964;2023-04-03T06:13:29;5.60;99.90
39219;DHT22;24934;52.752;6.964;2023-04-03T06:15:55;6.30;99.90
39219;DHT22;24934;52.752;6.964;2023-04-03T06:18:21;6.70;99.90
39219;DHT22;24934;52.752;6.964;2023-04-03T06:20:50;6.70;99.90
39219;DHT22;24934;52.752;6.964;2023-04-03T06:23:16;6.70;99.90
39219;DHT22;24934;52.752;6.964;2023-04-03T06:25:41;6.90;99.90
39219;DHT22;24934;52.752;6.964;2023-04-03T06:28:09;7.50;99.90
39219;DHT22;24934;52.752;6.964;2023-04-03T06:30:36;7.80;99.90
39219;DHT22;24934;52.752;6.964;2023-04-03T06:33:02;8.00;99.90
39219;DHT22;24934;52.752;6.964;2023-04-03T06:35:28;8.60;99.90
39219;DHT22;24934;52.752;6.964;2023-04-03T06:37:55;8.70;99.90
39219;DHT22;24934;52.752;6.964;2023-04-03T06:40:23;8.30;99.90
39219;DHT22;24934;52.752;6.964;2023-04-03T06:42:49;8.70;99.90
39219;DHT22;24934;52.752;6.964;2023-04-03T06:45:18;9.00;99.90
39219;DHT22;24934;52.752;6.964;2023-04-03T06:47:43;9.60;99.90
39219;DHT22;24934;52.752;6.964;2023-04-03T06:50:11;10.10;99.90
39219;DHT22;24934;52.752;6.964;2023-04-03T06:52:39;10.20;99.90
39219;DHT22;24934;52.752;6.964;2023-04-03T06:55:06;9.70;99.90
39219;DHT22;24934;52.752;6.964;2023-04-03T06:57:31;9.40;99.90
39219;DHT22;24934;52.752;6.964;2023-04-03T06:59:57;9.70;99.90
39219;DHT22;24934;52.752;6.964;2023-04-03T07:02:23;9.10;99.90
39219;DHT22;24934;52.752;6.964;2023-04-03T07:04:48;9.00;99.90
39219;DHT22;24934;52.752;6.964;2023-04-03T07:07:14;9.20;99.90
39219;DHT22;24934;52.752;6.964;2023-04-03T07:09:40;9.70;99.90
39219;DHT22;24934;52.752;6.964;2023-04-03T07:12:06;9.70;99.90
39219;DHT22;24934;52.752;6.964;2023-04-03T07:14:31;9.60;99.90
39219;DHT22;24934;52.752;6.964;2023-04-03T07:16:57;9.70;99.90
39219;DHT22;24934;52.752;6.964;2023-04-03T07:19:25;9.90;99.90
39219;DHT22;24934;52.752;6.964;2023-04-03T07:21:53;10.40;99.90
39219;DHT22;24934;52.752;6.964;2023-04-03T07:24:19;10.90;99.90
39219;DHT22;24934;52.752;6.964;2023-04-03T07:26:48;10.90;99.90
39219;DHT22;24934;52.752;6.964;2023-04-03T07:29:13;10.10;99.90
39219;DHT22;24934;52.752;6.964;2023-04-03T07:31:42;9.50;99.90
39219;DHT22;24934;52.752;6.964;2023-04-03T07:34:08;9.20;99.90
39219;DHT22;24934;52.752;6.964;2023-04-03T07:36:34;9.30;99.90
39219;DHT22;24934;52.752;6.964;2023-04-03T07:38:59;9.70;99.90
39219;DHT22;24934;52.752;6.964;2023-04-03T07:41:25;10.40;99.90
39219;DHT22;24934;52.752;6.964;2023-04-03T07:43:51;10.50;99.90
39219;DHT22;24934;52.752;6.964;2023-04-03T07:46:17;10.50;99.90
39219;DHT22;24934;52.752;6.964;2023-04-03T07:48:43;10.00;99.90
39219;DHT22;24934;52.752;6.964;2023-04-03T07:51:09;10.30;99.90
39219;DHT22;24934;52.752;6.964;2023-04-03T07:53:35;11.20;99.90
39219;DHT22;24934;52.752;6.964;2023-04-03T07:56:01;11.50;99.90
39219;DHT22;24934;52.752;6.964;2023-04-03T07:58:28;11.20;99.90
39219;DHT22;24934;52.752;6.964;2023-04-03T08:00:54;11.40;99.90
39219;DHT22;24934;52.752;6.964;2023-04-03T08:03:20;11.60;99.90
39219;DHT22;24934;52.752;6.964;2023-04-03T08:05:47;10.80;99.90
39219;DHT22;24934;52.752;6.964;2023-04-03T08:08:16;10.60;99.90
39219;DHT22;24934;52.752;6.964;2023-04-03T08:10:42;10.20;99.90
39219;DHT22;24934;52.752;6.964;2023-04-03T08:13:08;10.30;99.90
39219;DHT22;24934;52.752;6.964;2023-04-03T08:15:34;10.90;99.90
39219;DHT22;24934;52.752;6.964;2023-04-03T08:18:01;11.80;99.90
39219;DHT22;24934;52.752;6.964;2023-04-03T08:20:27;12.40;99.90
39219;DHT22;24934;52.752;6.964;2023-04-03T08:22:54;12.20;99.00
39219;DHT22;24934;52.752;6.964;2023-04-03T08:25:19;12.60;99.10
39219;DHT22;24934;52.752;6.964;2023-04-03T08:27:45;12.10;97.30
39219;DHT22;24934;52.752;6.964;2023-04-03T08:30:12;12.20;96.90
39219;DHT22;24934;52.752;6.964;2023-04-03T08:32:38;12.50;97.70
39219;DHT22;24934;52.752;6.964;2023-04-03T08:35:05;12.50;95.70
39219;DHT22;24934;52.752;6.964;2023-04-03T08:37:31;12.80;95.90
39219;DHT22;24934;52.752;6.964;2023-04-03T08:40:00;13.10;95.70
39219;DHT22;24934;52.752;6.964;2023-04-03T08:42:52;13.10;96.10
39219;DHT22;24934;52.752;6.964;2023-04-03T08:45:22;12.60;95.70
39219;DHT22;24934;52.752;6.964;2023-04-03T08:48:06;13.20;92.70
39219;DHT22;24934;52.752;6.964;2023-04-03T08:50:52;12.50;93.30
39219;DHT22;24934;52.752;6.964;2023-04-03T08:53:21;12.10;93.00
39219;DHT22;24934;52.752;6.964;2023-04-03T08:55:49;11.70;92.40
39219;DHT22;24934;52.752;6.964;2023-04-03T09:03:23;12.90;91.50
39219;DHT22;24934;52.752;6.964;2023-04-03T09:08:30;12.20;92.40
39219;DHT22;24934;52.752;6.964;2023-04-03T09:13:44;11.10;92.20
39219;DHT22;24934;52.752;6.964;2023-04-03T09:24:40;12.00;91.10
39219;DHT22;24934;52.752;6.964;2023-04-03T09:27:09;12.20;90.70
39219;DHT22;24934;52.752;6.964;2023-04-03T09:29:40;12.00;89.10
39219;DHT22;24934;52.752;6.964;2023-04-03T09:32:26;12.10;87.80
39219;DHT22;24934;52.752;6.964;2023-04-03T09:34:54;12.70;90.50
39219;DHT22;24934;52.752;6.964;2023-04-03T09:37:47;12.10;86.00
39219;DHT22;24934;52.752;6.964;2023-04-03T09:42:54;10.70;87.30
39219;DHT22;24934;52.752;6.964;2023-04-03T09:45:25;11.10;87.40
39219;DHT22;24934;52.752;6.964;2023-04-03T09:50:54;11.00;90.00
39219;DHT22;24934;52.752;6.964;2023-04-03T09:55:55;11.10;88.10
39219;DHT22;24934;52.752;6.964;2023-04-03T09:58:25;11.50;88.50
39219;DHT22;24934;52.752;6.964;2023-04-03T10:00:59;11.60;87.60
39219;DHT22;24934;52.752;6.964;2023-04-03T10:03:36;11.70;90.40
39219;DHT22;24934;52.752;6.964;2023-04-03T10:06:03;12.40;90.80
39219;DHT22;24934;52.752;6.964;2023-04-03T10:08:33;13.30;89.10
39219;DHT22;24934;52.752;6.964;2023-04-03T10:11:14;13.30;85.80
39219;DHT22;24934;52.752;6.964;2023-04-03T10:13:52;14.00;89.10
39219;DHT22;24934;52.752;6.964;2023-04-03T10:16:23;14.30;83.60
39219;DHT22;24934;52.752;6.964;2023-04-03T10:21:36;15.00;82.10
39219;DHT22;24934;52.752;6.964;2023-04-03T10:24:17;14.80;84.70
39219;DHT22;24934;52.752;6.964;2023-04-03T10:27:01;14.80;81.90
39219;DHT22;24934;52.752;6.964;2023-04-03T10:29:59;15.00;83.00
39219;DHT22;24934;52.752;6.964;2023-04-03T10:38:04;14.90;82.30
39219;DHT22;24934;52.752;6.964;2023-04-03T10:41:07;14.80;79.30
39219;DHT22;24934;52.752;6.964;2023-04-03T10:43:44;14.50;84.80
39219;DHT22;24934;52.752;6.964;2023-04-03T10:46:27;14.40;80.90
39219;DHT22;24934;52.752;6.964;2023-04-03T10:51:51;15.00;78.90
39219;DHT22;24934;52.752;6.964;2023-04-03T10:54:39;15.10;80.70
39219;DHT22;24934;52.752;6.964;2023-04-03T10:57:10;15.30;79.20
39219;DHT22;24934;52.752;6.964;2023-04-03T10:59:59;15.00;76.80
39219;DHT22;24934;52.752;6.964;2023-04-03T11:02:32;14.20;76.20
39219;DHT22;24934;52.752;6.964;2023-04-03T11:05:15;14.40;77.60
39219;DHT22;24934;52.752;6.964;2023-04-03T11:07:50;14.70;81.50
39219;DHT22;24934;52.752;6.964;2023-04-03T11:10:21;15.00;80.20
39219;DHT22;24934;52.752;6.964;2023-04-03T11:12:56;14.70;76.80
39219;DHT22;24934;52.752;6.964;2023-04-03T11:15:24;14.20;79.70
39219;DHT22;24934;52.752;6.964;2023-04-03T11:18:09;14.30;80.40
39219;DHT22;24934;52.752;6.964;2023-04-03T11:20:36;14.30;79.00
39219;DHT22;24934;52.752;6.964;2023-04-03T11:23:31;14.50;81.60
39219;DHT22;24934;52.752;6.964;2023-04-03T11:26:13;14.90;82.20
39219;DHT22;24934;52.752;6.964;2023-04-03T11:28:41;15.20;79.00
39219;DHT22;24934;52.752;6.964;2023-04-03T11:31:33;15.20;80.80
39219;DHT22;24934;52.752;6.964;2023-04-03T11:34:16;13.90;76.70
39219;DHT22;24934;52.752;6.964;2023-04-03T11:36:54;13.80;81.20
39219;DHT22;24934;52.752;6.964;2023-04-03T11:39:35;13.70;79.40
39219;DHT22;24934;52.752;6.964;2023-04-03T11:42:17;13.70;81.90
39219;DHT22;24934;52.752;6.964;2023-04-03T11:47:46;14.20;77.70
39219;DHT22;24934;52.752;6.964;2023-04-03T11:50:38;14.00;79.80
39219;DHT22;24934;52.752;6.964;2023-04-03T11:55:44;13.70;77.90
39219;DHT22;24934;52.752;6.964;2023-04-03T11:58:16;13.90;82.30
39219;DHT22;24934;52.752;6.964;2023-04-03T12:00:57;14.00;78.50
39219;DHT22;24934;52.752;6.964;2023-04-03T12:16:28;12.60;82.00
39219;DHT22;24934;52.752;6.964;2023-04-03T12:24:28;12.10;79.20
39219;DHT22;24934;52.752;6.964;2023-04-03T12:43:39;12.40;85.50
39219;DHT22;24934;52.752;6.964;2023-04-03T12:46:22;12.70;84.20
39219;DHT22;24934;52.752;6.964;2023-04-03T12:48:54;12.40;83.00
39219;DHT22;24934;52.752;6.964;2023-04-03T12:51:37;12.00;81.70
39219;DHT22;24934;52.752;6.964;2023-04-03T12:54:15;12.10;82.00
39219;DHT22;24934;52.752;6.964;2023-04-03T12:56:42;12.20;82.30
39219;DHT22;24934;52.752;6.964;2023-04-03T12:59:19;12.40;87.10
39219;DHT22;24934;52.752;6.964;2023-04-03T13:02:02;11.90;81.70
39219;DHT22;24934;52.752;6.964;2023-04-03T13:04:30;12.10;83.10
39219;DHT22;24934;52.752;6.964;2023-04-03T13:06:56;12.40;82.80
39219;DHT22;24934;52.752;6.964;2023-04-03T13:09:28;12.50;84.20
39219;DHT22;24934;52.752;6.964;2023-04-03T13:12:01;12.60;83.60
39219;DHT22;24934;52.752;6.964;2023-04-03T13:14:28;12.50;81.00
39219;DHT22;24934;52.752;6.964;2023-04-03T13:17:06;12.50;84.10
39219;DHT22;24934;52.752;6.964;2023-04-03T13:19:36;12.50;82.40
39219;DHT22;24934;52.752;6.964;2023-04-03T13:22:06;12.40;82.00
39219;DHT22;24934;52.752;6.964;2023-04-03T13:24:35;12.50;82.60
39219;DHT22;24934;52.752;6.964;2023-04-03T13:27:03;12.30;81.60
39219;DHT22;24934;52.752;6.964;2023-04-03T13:29:35;12.40;85.60
39219;DHT22;24934;52.752;6.964;2023-04-03T13:32:02;12.50;85.00
39219;DHT22;24934;52.752;6.964;2023-04-03T13:34:40;12.70;84.40
39219;DHT22;24934;52.752;6.964;2023-04-03T13:37:06;13.00;84.40
39219;DHT22;24934;52.752;6.964;2023-04-03T13:39:39;13.00;82.00
39219;DHT22;24934;52.752;6.964;2023-04-03T13:42:36;13.10;90.30
39219;DHT22;24934;52.752;6.964;2023-04-03T13:45:22;13.30;86.90
39219;DHT22;24934;52.752;6.964;2023-04-03T13:47:51;13.60;85.00
39219;DHT22;24934;52.752;6.964;2023-04-03T13:50:21;13.30;83.10
39219;DHT22;24934;52.752;6.964;2023-04-03T13:53:12;13.10;82.10
39219;DHT22;24934;52.752;6.964;2023-04-03T13:56:06;12.80;85.10
39219;DHT22;24934;52.752;6.964;2023-04-03T13:58:34;12.80;82.20
39219;DHT22;24934;52.752;6.964;2023-04-03T14:01:20;12.90;84.40
39219;DHT22;24934;52.752;6.964;2023-04-03T14:03:47;12.70;82.50
39219;DHT22;24934;52.752;6.964;2023-04-03T14:06:16;12.60;80.60
39219;DHT22;24934;52.752;6.964;2023-04-03T14:08:44;12.60;84.50
39219;DHT22;24934;52.752;6.964;2023-04-03T14:11:16;12.60;81.80
39219;DHT22;24934;52.752;6.964;2023-04-03T14:13:43;12.60;84.10
39219;DHT22;24934;52.752;6.964;2023-04-03T14:16:23;12.50;84.10
39219;DHT22;24934;52.752;6.964;2023-04-03T14:18:50;12.20;85.00
39219;DHT22;24934;52.752;6.964;2023-04-03T14:21:17;12.10;84.40
39219;DHT22;24934;52.752;6.964;2023-04-03T14:23:50;11.80;83.70
39219;DHT22;24934;52.752;6.964;2023-04-03T14:26:22;11.40;83.10
39219;DHT22;24934;52.752;6.964;2023-04-03T14:28:52;11.50;87.60
39219;DHT22;24934;52.752;6.964;2023-04-03T14:31:18;11.70;85.10
39219;DHT22;24934;52.752;6.964;2023-04-03T14:33:44;11.60;83.60
39219;DHT22;24934;52.752;6.964;2023-04-03T14:36:13;11.60;85.80
39219;DHT22;24934;52.752;6.964;2023-04-03T14:38:40;11.40;84.50
39219;DHT22;24934;52.752;6.964;2023-04-03T14:41:06;11.20;84.10
39219;DHT22;24934;52.752;6.964;2023-04-03T14:43:32;11.40;85.80
39219;DHT22;24934;52.752;6.964;2023-04-03T14:45:58;10.90;83.40
39219;DHT22;24934;52.752;6.964;2023-04-03T14:48:26;10.80;85.80
39219;DHT22;24934;52.752;6.964;2023-04-03T14:50:53;11.30;86.30
39219;DHT22;24934;52.752;6.964;2023-04-03T14:53:21;11.70;88.30
39219;DHT22;24934;52.752;6.964;2023-04-03T14:55:51;11.50;85.10
39219;DHT22;24934;52.752;6.964;2023-04-03T14:58:20;11.10;85.00
39219;DHT22;24934;52.752;6.964;2023-04-03T15:00:47;11.00;87.10
39219;DHT22;24934;52.752;6.964;2023-04-03T15:03:18;11.00;84.30
39219;DHT22;24934;52.752;6.964;2023-04-03T15:05:46;11.20;86.60
39219;DHT22;24934;52.752;6.964;2023-04-03T15:08:21;11.20;88.10
39219;DHT22;24934;52.752;6.964;2023-04-03T15:10:47;10.90;84.50
39219;DHT22;24934;52.752;6.964;2023-04-03T15:13:13;11.10;85.30
39219;DHT22;24934;52.752;6.964;2023-04-03T15:15:39;10.90;85.90
39219;DHT22;24934;52.752;6.964;2023-04-03T15:18:05;11.00;84.30
39219;DHT22;24934;52.752;6.964;2023-04-03T15:20:31;10.80;87.20
39219;DHT22;24934;52.752;6.964;2023-04-03T15:22:59;10.60;84.80
39219;DHT22;24934;52.752;6.964;2023-04-03T15:25:28;10.30;85.50
39219;DHT22;24934;52.752;6.964;2023-04-03T15:27:55;10.50;85.70
39219;DHT22;24934;52.752;6.964;2023-04-03T15:30:21;10.20;85.00
39219;DHT22;24934;52.752;6.964;2023-04-03T15:32:47;10.50;88.70
39219;DHT22;24934;52.752;6.964;2023-04-03T15:35:13;10.50;88.90
39219;DHT22;24934;52.752;6.964;2023-04-03T15:37:39;10.40;87.10
39219;DHT22;24934;52.752;6.964;2023-04-03T15:40:06;10.30;86.90
39219;DHT22;24934;52.752;6.964;2023-04-03T15:42:32;10.20;87.70
39219;DHT22;24934;52.752;6.964;2023-04-03T15:44:58;10.50;85.00
39219;DHT22;24934;52.752;6.964;2023-04-03T15:47:25;10.40;85.40
39219;DHT22;24934;52.752;6.964;2023-04-03T15:49:51;10.50;87.90
39219;DHT22;24934;52.752;6.964;2023-04-03T15:52:16;10.50;86.10
39219;DHT22;24934;52.752;6.964;2023-04-03T15:54:42;10.20;84.70
39219;DHT22;24934;52.752;6.964;2023-04-03T15:57:08;10.20;88.50
39219;DHT22;24934;52.752;6.964;2023-04-03T15:59:33;10.00;88.50
39219;DHT22;24934;52.752;6.964;2023-04-03T16:02:01;9.70;86.50
39219;DHT22;24934;52.752;6.964;2023-04-03T16:04:29;9.50;87.90
39219;DHT22;24934;52.752;6.964;2023-04-03T16:06:55;9.30;85.70
39219;DHT22;24934;52.752;6.964;2023-04-03T16:09:21;9.30;90.00
39219;DHT22;24934;52.752;6.964;2023-04-03T16:11:46;9.20;87.70
39219;DHT22;24934;52.752;6.964;2023-04-03T16:14:12;9.20;89.70
39219;DHT22;24934;52.752;6.964;2023-04-03T16:16:38;9.30;90.60
39219;DHT22;24934;52.752;6.964;2023-04-03T16:19:04;9.10;89.10
39219;DHT22;24934;52.752;6.964;2023-04-03T16:21:31;9.10;90.20
39219;DHT22;24934;52.752;6.964;2023-04-03T16:24:01;9.10;90.00
39219;DHT22;24934;52.752;6.964;2023-04-03T16:26:27;9.00;90.40
39219;DHT22;24934;52.752;6.964;2023-04-03T16:28:53;9.00;89.20
39219;DHT22;24934;52.752;6.964;2023-04-03T16:31:19;8.90;89.40
39219;DHT22;24934;52.752;6.964;2023-04-03T16:33:45;8.90;90.00
39219;DHT22;24934;52.752;6.964;2023-04-03T16:36:11;8.80;89.30
39219;DHT22;24934;52.752;6.964;2023-04-03T16:38:36;8.70;89.50
39219;DHT22;24934;52.752;6.964;2023-04-03T16:41:02;8.60;89.70
39219;DHT22;24934;52.752;6.964;2023-04-03T16:43:31;8.60;90.40
39219;DHT22;24934;52.752;6.964;2023-04-03T16:45:57;8.60;90.10
39219;DHT22;24934;52.752;6.964;2023-04-03T16:48:23;8.60;90.70
39219;DHT22;24934;52.752;6.964;2023-04-03T16:50:49;8.50;91.70
39219;DHT22;24934;52.752;6.964;2023-04-03T16:53:21;8.60;92.60
39219;DHT22;24934;52.752;6.964;2023-04-03T16:55:47;8.50;90.90
39219;DHT22;24934;52.752;6.964;2023-04-03T16:58:13;8.30;91.30
39219;DHT22;24934;52.752;6.964;2023-04-03T17:00:40;8.30;91.20
39219;DHT22;24934;52.752;6.964;2023-04-03T17:03:06;8.30;91.30
39219;DHT22;24934;52.752;6.964;2023-04-03T17:05:32;8.20;91.30
39219;DHT22;24934;52.752;6.964;2023-04-03T17:07:57;8.10;91.70
39219;DHT22;24934;52.752;6.964;2023-04-03T17:10:24;8.10;91.90
39219;DHT22;24934;52.752;6.964;2023-04-03T17:12:52;8.00;92.90
39219;DHT22;24934;52.752;6.964;2023-04-03T17:15:18;7.90;91.30